默认 日期 大小 文件数 浏览量 最新下载 xml
psy-磁力链接相关资源由用户搜索指令自动获取,结果来源于网络,本站不存储任何资料,亦不承担任何责任,请于24小时内删除,搜索到2205个磁力,用时2ms。
    ... - Avshi - Inner Sun.mp3": 21022454, "Psy-Progressive Trance.jpg": 563376, "06 ...
创建时间: 2018-11-10 06:36:04 大小:559.87 MB 文件数量:33 热度:5 最近下载:2025-03-28 02:18:01
    {"folder.jpg": 136215, "42 Goe - OD.tak": 79881049, "80 FFT - Nexus.tak": 63151079, "folder.auCDtect.txt": 39970, "43 01-N - Reflex.tak": 58016049, "61 Raz - Tb Land.tak": 53250073, "07 20x - Divinorum.tak": 47933215, "58 Onyx - Manpower.tak": ...
创建时间: 2018-11-10 10:16:11 大小:4.96 GB 文件数量:101 热度:13 最近下载:2025-04-15 00:51:01
    {"Downloaded From Rarbg.to.txt": 32, "05. Bionix - Q factor (Remix).mp3": 19624614, "10. Straight Up - Sower (Remix).mp3": 16877581, "16. Astro-D - Night Sun (Remix).mp3": 17324798, "02. BPM - The Tribe (Original Mix).mp3": 22594224, "06. ...
创建时间: 2018-11-10 11:00:07 大小:672.28 MB 文件数量:41 热度:9 最近下载:2025-08-02 21:07:02
    ... Kirilica.avi": 764272640, "6esheHye.Psy.S01.E02.Kirilica.avi": ... 554901504, "6esheHye.Psy.S01.E03.Kirilica.avi": ... 740507648, "6esheHye.Psy.S01.E04.Kirilica.avi": ... Kirilica.avi": 691019776, "6esheHye.Psy.S01.E10.Kirilica.avi": 734595072 ...
创建时间: 2018-11-10 14:32:55 大小:6.35 GB 文件数量:10 热度:7 最近下载:2025-04-25 11:15:02
    {"Psy (1992) [1080P] [HD.TV] [H264] [AC3-E1973] [FILM POLSKI].mkv": 2920507641, "Psy 2 - Ostatnia Krew (1994) [1080P] [HD.TV] [H264] [AC3-E1973] [FILM POLSKI].mkv": 2701392376}
创建时间: 2018-11-10 23:04:12 大小:5.24 GB 文件数量:2 热度:14 最近下载:2025-08-03 14:28:07
    ... - Dance Jockey.flac": 27067547, "00 - PSY The 7th Album.m3u": 775 ...
创建时间: 2018-11-11 02:55:25 大小:238.49 MB 文件数量:14 热度:9 最近下载:2025-04-18 14:22:01
    {"mov": {"0002.mpg": 1615872, "0003.mpg": 183818244, "0004.mpg": 29844808}, "bgm.xfl": 35707376, "scr.xfl": 2985520, "wav.xfl": 44310598, "grpb.xfl": 129293010, "grpe.xfl": 486823438, "grpo.xfl": 10128180, "grps.xfl": 126164447, "voice.xfl": 1010842760, " ...
创建时间: 2018-11-11 15:04:23 大小:1.96 GB 文件数量:15 热度:12 最近下载:2025-06-15 19:19:02
    {"Psy 2 - Ostatnia krew (www.kinokopilka.pro).avi": 1662140416, "Psy 2 - Ostatnia krew (www.kinokopilka.pro).jpg": 71155, "KinoKopilka.pro - Best Movies BitTorrent Network.url": 81}
创建时间: 2018-11-11 15:48:41 大小:1.55 GB 文件数量:3 热度:7 最近下载:2025-04-18 22:21:02
    {"Albums": {"[2002.09.19] - 3 PSY (320 kbps)": {"cover.jpg": 102573, " ... mp3": 11056017}, "[2000.10.24] - PSY FROM THE PSYCHO WORLD (320 ... Seung Hun 20th Anniversary With PSY Vol.4 (320 kbps)": {" ... 10.06] - 06 Novice (feat. PSY) [Lexury].mp3": 9317398, "[2004.06 ...
创建时间: 2018-11-11 18:53:25 大小:1.08 GB 文件数量:156 热度:8 最近下载:2025-05-18 03:59:02
    ... Remix).mp3": 9342044, "A1. Psy - Gangnam Style (Original Version ... ).mp3": 8807003, "A3. Psy - Gangnam Style (Reidiculous Remix). ... mp3": 11332582, "B1. Psy - Gangnam Style (Trevor Simpson ... Remix).mp3": 11174815, "B3. Psy - Gangnam Style (DJ Luxur ...
创建时间: 2018-11-11 21:24:35 大小:61.54 MB 文件数量:7 热度:10 最近下载:2025-03-29 19:24:02
    {"02. Berg - Bayaka.mp3": 16900394, "06. ABC - Space Of Time.mp3": 18260864, "16. Arctika - True Lies.mp3": 16060308, "18. GMO - Paradise No. 9.mp3": 21067463, "Downloaded From Rarbg.to.txt": 32, "04. Ghost Rider - Shamanic.mp3": 19473996, "19. Mystic ...
创建时间: 2018-11-11 23:18:21 大小:338.84 MB 文件数量:21 热度:9 最近下载:2025-08-03 19:47:06
    {"Back Cover.jpg": 58118, "Album Cover.jpg": 146613, "03 Gangnam Style (강남 스타일).mp3": 8954265, "06 Never Say Goodbye (feat. Yoon DoH.mp3": 8251560, "04 Year of 77 (77학 개론) [feat. LeeSSa.mp3": 11345652, "01 Blue Frog (청개구리) [feat. G-Dragon].mp3": 8497316, " ...
创建时间: 2018-11-12 08:25:25 大小:53.15 MB 文件数量:8 热度:8 最近下载:2025-04-10 21:54:01
    ... XviD.DVDRip.avi": 2347728896, "Beshenye.psy.1992.XviD.DVDRip.ENG.srt ... .RUS.srt": 90949, "Beshenye.psy.1992.XviD.DVDRip.ENG2.srt ... ": 115718, "Beshenye.psy.1992.XviD.DVDRip.RUS2.srt ... ": 91186, "Beshenye.psy.1992.XviD.DVDRip.Goblin.srt ...
创建时间: 2018-11-12 13:31:35 大小:2.19 GB 文件数量:6 热度:10 最近下载:2025-08-03 15:44:03
    ... 338, "Les Psy (CD1).jpg": 1154321, "Les Psy (CD1).txt": 900 ... 13823833, "Tome 17 - Pourquoi un psy.jpg": 2682255, "Tome 17 - ... Pourquoi un psy.pdf": 83626720, "Tome 04 - ... votre problème.pdf": 17578881}, "Psy (Les) (CD2)": {"File_id.diz": ...
创建时间: 2018-11-12 20:30:48 大小:754.56 MB 文件数量:49 热度:6 最近下载:2025-04-14 00:42:02
    ... 이 - 3싸이 (3 Psy)": {"Psy 3집.jpg": 54696, "03 ... .mp3": 7675904, "04.Psy-끝.mp3": 9207808, "02.Psy-Lady.mp3": 8880128 ... , "06.Psy-Life.mp3": 10719232 ... .mp3": 8040448, "01.Psy-Intro.mp3": 4386816, "20.Psy-Outro.mp3": 5337088 ...
创建时间: 2018-11-13 06:18:54 大小:895.82 MB 文件数量:121 热度:7 最近下载:2025-04-25 10:13:02
    {"20. Uriya - Drop Dead.mp3": 16672191, "Downloaded from Rarbg.to.txt": 32, "04. Synesthetic - Ethnos.mp3": 21624261, "24. Becker - Imagination.mp3": 15500741, "01. Aerospace - Corrupted.mp3": 17790407, "13. Rishi - Crystal Clear.mp3": 18525639, "17. ...
创建时间: 2018-11-13 07:16:15 大小:440.1 MB 文件数量:26 热度:5 最近下载:2025-04-03 17:28:02
    ... stron www(2).html": 43702, "Psy i koty (2001) [DVDRip.XviD ...
创建时间: 2018-11-13 08:05:05 大小:699.89 MB 文件数量:6 热度:5 最近下载:2025-03-29 23:31:03
    {"folder.jpg": 51267, "19 - GMO - Realities.mp3": 20054016, "10 - Titans - Inferno.mp3": 15568896, "09 - Krunch - El Primo.mp3": 18452480, "16 - Cabal - Star Wars.mp3": 19924992, "08 - Osher - Seven Skies.mp3": 21057536, "05 - harmonika - Albatrox.mp3": ...
创建时间: 2018-11-13 08:38:22 大小:327.15 MB 文件数量:21 热度:9 最近下载:2025-04-23 04:54:01
    {"VIDEO_TS": {"VIDEO_TS.BUP": 12288, "VIDEO_TS.IFO": 12288, "VIDEO_TS.VOB": 9547776, "VTS_01_0.BUP": 83968, "VTS_01_0.IFO": 83968, "VTS_01_0.VOB": 369909760, "VTS_01_1.VOB": 1073739776, "VTS_01_2.VOB": 1073739776, "VTS_01_3.VOB": 1073739776, "VTS_01_4.VOB ...
创建时间: 2018-11-13 09:19:03 大小:4.34 GB 文件数量:10 热度:27 最近下载:2025-08-06 10:25:05
    {"Cover": {"CD_a.jpg": 291273, "CD_b.jpg": 1141904, "CD_back.jpg": 72082, "CD_front.jpg": 643829}, "front.png": 348054, "audiochecker.log": 585, "03. Gangnam Style.flac": 29447986, "01. Tree Frog (feat. G-Dragon).flac": 26828635, "02. Hot Hi (feat. Sung Si ...
创建时间: 2018-11-13 11:16:25 大小:170.14 MB 文件数量:12 热度:8 最近下载:2025-04-23 04:20:01